sensor_id;sensor_type;location;lat;lon;timestamp;P1;durP1;ratioP1;P2;durP2;ratioP2
35330;SDS011;21441;52.190;20.910;2024-02-14T00:01:05;16.38;;;9.45;;
35330;SDS011;21441;52.190;20.910;2024-02-14T00:03:40;19.98;;;9.98;;
35330;SDS011;21441;52.190;20.910;2024-02-14T00:06:07;16.90;;;9.45;;
35330;SDS011;21441;52.190;20.910;2024-02-14T00:08:34;18.17;;;9.90;;
35330;SDS011;21441;52.190;20.910;2024-02-14T00:11:01;14.90;;;9.75;;
35330;SDS011;21441;52.190;20.910;2024-02-14T00:13:27;20.65;;;9.88;;
35330;SDS011;21441;52.190;20.910;2024-02-14T00:15:54;16.40;;;10.30;;
35330;SDS011;21441;52.190;20.910;2024-02-14T00:18:21;18.52;;;9.40;;
35330;SDS011;21441;52.190;20.910;2024-02-14T00:20:50;18.02;;;10.38;;
35330;SDS011;21441;52.190;20.910;2024-02-14T00:23:16;19.60;;;9.52;;
35330;SDS011;21441;52.190;20.910;2024-02-14T00:25:43;16.77;;;9.50;;
35330;SDS011;21441;52.190;20.910;2024-02-14T00:28:10;16.77;;;9.32;;
35330;SDS011;21441;52.190;20.910;2024-02-14T00:30:38;16.42;;;9.48;;
35330;SDS011;21441;52.190;20.910;2024-02-14T00:33:04;14.80;;;10.30;;
35330;SDS011;21441;52.190;20.910;2024-02-14T00:35:32;15.60;;;9.68;;
35330;SDS011;21441;52.190;20.910;2024-02-14T00:38:00;19.58;;;8.82;;
35330;SDS011;21441;52.190;20.910;2024-02-14T00:40:27;13.23;;;8.52;;
35330;SDS011;21441;52.190;20.910;2024-02-14T00:42:54;16.27;;;9.27;;
35330;SDS011;21441;52.190;20.910;2024-02-14T00:45:21;17.30;;;9.32;;
35330;SDS011;21441;52.190;20.910;2024-02-14T00:47:48;16.35;;;9.77;;
35330;SDS011;21441;52.190;20.910;2024-02-14T00:50:15;15.02;;;9.88;;
35330;SDS011;21441;52.190;20.910;2024-02-14T00:52:41;14.57;;;9.30;;
35330;SDS011;21441;52.190;20.910;2024-02-14T00:55:10;14.73;;;8.63;;
35330;SDS011;21441;52.190;20.910;2024-02-14T00:57:37;14.80;;;9.27;;
35330;SDS011;21441;52.190;20.910;2024-02-14T01:00:04;15.02;;;8.43;;
35330;SDS011;21441;52.190;20.910;2024-02-14T01:02:32;15.05;;;8.57;;
35330;SDS011;21441;52.190;20.910;2024-02-14T01:04:59;15.75;;;9.88;;
35330;SDS011;21441;52.190;20.910;2024-02-14T01:07:25;16.45;;;8.65;;
35330;SDS011;21441;52.190;20.910;2024-02-14T01:09:52;16.45;;;9.88;;
35330;SDS011;21441;52.190;20.910;2024-02-14T01:12:20;17.50;;;9.63;;
35330;SDS011;21441;52.190;20.910;2024-02-14T01:14:47;19.58;;;9.52;;
35330;SDS011;21441;52.190;20.910;2024-02-14T01:17:14;15.70;;;8.57;;
35330;SDS011;21441;52.190;20.910;2024-02-14T01:19:41;16.42;;;9.25;;
35330;SDS011;21441;52.190;20.910;2024-02-14T01:22:08;16.88;;;10.07;;
35330;SDS011;21441;52.190;20.910;2024-02-14T01:24:35;18.70;;;9.18;;
35330;SDS011;21441;52.190;20.910;2024-02-14T01:27:01;18.67;;;10.13;;
35330;SDS011;21441;52.190;20.910;2024-02-14T01:29:30;14.93;;;8.88;;
35330;SDS011;21441;52.190;20.910;2024-02-14T01:31:57;18.35;;;10.90;;
35330;SDS011;21441;52.190;20.910;2024-02-14T01:34:24;20.17;;;9.95;;
35330;SDS011;21441;52.190;20.910;2024-02-14T01:36:50;13.20;;;9.70;;
35330;SDS011;21441;52.190;20.910;2024-02-14T01:39:17;19.73;;;10.00;;
35330;SDS011;21441;52.190;20.910;2024-02-14T01:41:44;16.40;;;9.88;;
35330;SDS011;21441;52.190;20.910;2024-02-14T01:44:11;21.65;;;9.85;;
35330;SDS011;21441;52.190;20.910;2024-02-14T01:46:39;17.83;;;9.43;;
35330;SDS011;21441;52.190;20.910;2024-02-14T01:49:06;21.85;;;9.73;;
35330;SDS011;21441;52.190;20.910;2024-02-14T01:51:33;17.15;;;10.50;;
35330;SDS011;21441;52.190;20.910;2024-02-14T01:54:02;18.95;;;9.70;;
35330;SDS011;21441;52.190;20.910;2024-02-14T01:56:29;20.30;;;10.25;;
35330;SDS011;21441;52.190;20.910;2024-02-14T01:58:56;21.40;;;11.18;;
35330;SDS011;21441;52.190;20.910;2024-02-14T02:01:23;21.48;;;12.57;;
35330;SDS011;21441;52.190;20.910;2024-02-14T02:03:52;24.08;;;13.07;;
35330;SDS011;21441;52.190;20.910;2024-02-14T02:06:18;22.00;;;12.95;;
35330;SDS011;21441;52.190;20.910;2024-02-14T02:08:45;26.65;;;13.18;;
35330;SDS011;21441;52.190;20.910;2024-02-14T02:11:12;25.42;;;12.93;;
35330;SDS011;21441;52.190;20.910;2024-02-14T02:13:39;20.42;;;12.82;;
35330;SDS011;21441;52.190;20.910;2024-02-14T02:16:06;22.67;;;13.13;;
35330;SDS011;21441;52.190;20.910;2024-02-14T02:18:33;23.70;;;13.25;;
35330;SDS011;21441;52.190;20.910;2024-02-14T02:21:01;22.67;;;14.13;;
35330;SDS011;21441;52.190;20.910;2024-02-14T02:23:31;21.27;;;13.82;;
35330;SDS011;21441;52.190;20.910;2024-02-14T02:25:57;23.23;;;12.45;;
35330;SDS011;21441;52.190;20.910;2024-02-14T02:28:25;22.17;;;13.32;;
35330;SDS011;21441;52.190;20.910;2024-02-14T02:30:51;23.88;;;14.75;;
35330;SDS011;21441;52.190;20.910;2024-02-14T02:33:19;25.38;;;14.23;;
35330;SDS011;21441;52.190;20.910;2024-02-14T02:35:47;24.35;;;14.75;;
35330;SDS011;21441;52.190;20.910;2024-02-14T02:38:15;26.40;;;14.00;;
35330;SDS011;21441;52.190;20.910;2024-02-14T02:40:44;26.42;;;15.43;;
35330;SDS011;21441;52.190;20.910;2024-02-14T02:43:11;24.52;;;14.30;;
35330;SDS011;21441;52.190;20.910;2024-02-14T02:45:37;30.42;;;15.70;;
35330;SDS011;21441;52.190;20.910;2024-02-14T02:48:05;27.67;;;15.50;;
35330;SDS011;21441;52.190;20.910;2024-02-14T02:50:32;26.98;;;16.08;;
35330;SDS011;21441;52.190;20.910;2024-02-14T02:52:59;29.42;;;15.50;;
35330;SDS011;21441;52.190;20.910;2024-02-14T02:55:26;24.65;;;15.05;;
35330;SDS011;21441;52.190;20.910;2024-02-14T02:57:54;27.75;;;15.50;;
35330;SDS011;21441;52.190;20.910;2024-02-14T03:00:21;25.20;;;16.00;;
35330;SDS011;21441;52.190;20.910;2024-02-14T03:02:48;25.75;;;15.93;;
35330;SDS011;21441;52.190;20.910;2024-02-14T03:05:14;33.92;;;18.10;;
35330;SDS011;21441;52.190;20.910;2024-02-14T03:07:44;25.30;;;15.03;;
35330;SDS011;21441;52.190;20.910;2024-02-14T03:10:13;23.48;;;15.90;;
35330;SDS011;21441;52.190;20.910;2024-02-14T03:12:40;32.22;;;17.48;;
35330;SDS011;21441;52.190;20.910;2024-02-14T03:15:09;27.33;;;17.85;;
35330;SDS011;21441;52.190;20.910;2024-02-14T03:17:36;37.67;;;20.73;;
35330;SDS011;21441;52.190;20.910;2024-02-14T03:20:03;36.85;;;20.48;;
35330;SDS011;21441;52.190;20.910;2024-02-14T03:22:36;32.70;;;18.75;;
35330;SDS011;21441;52.190;20.910;2024-02-14T03:25:02;34.13;;;19.08;;
35330;SDS011;21441;52.190;20.910;2024-02-14T03:27:30;31.60;;;19.15;;
35330;SDS011;21441;52.190;20.910;2024-02-14T03:29:57;28.67;;;18.10;;
35330;SDS011;21441;52.190;20.910;2024-02-14T03:32:29;29.25;;;18.48;;
35330;SDS011;21441;52.190;20.910;2024-02-14T03:34:56;29.55;;;17.23;;
35330;SDS011;21441;52.190;20.910;2024-02-14T03:37:23;28.58;;;16.95;;
35330;SDS011;21441;52.190;20.910;2024-02-14T03:39:50;29.83;;;17.63;;
35330;SDS011;21441;52.190;20.910;2024-02-14T03:42:17;31.90;;;16.10;;
35330;SDS011;21441;52.190;20.910;2024-02-14T03:44:45;31.67;;;18.75;;
35330;SDS011;21441;52.190;20.910;2024-02-14T03:47:12;32.33;;;17.83;;
35330;SDS011;21441;52.190;20.910;2024-02-14T03:49:41;31.08;;;18.70;;
35330;SDS011;21441;52.190;20.910;2024-02-14T03:52:07;28.35;;;16.85;;
35330;SDS011;21441;52.190;20.910;2024-02-14T03:54:35;33.67;;;18.95;;
35330;SDS011;21441;52.190;20.910;2024-02-14T03:57:02;32.17;;;16.17;;
35330;SDS011;21441;52.190;20.910;2024-02-14T03:59:30;32.17;;;17.50;;
35330;SDS011;21441;52.190;20.910;2024-02-14T04:01:58;30.13;;;18.40;;
35330;SDS011;21441;52.190;20.910;2024-02-14T04:04:25;31.85;;;18.45;;
35330;SDS011;21441;52.190;20.910;2024-02-14T04:06:53;27.50;;;16.55;;
35330;SDS011;21441;52.190;20.910;2024-02-14T04:09:19;28.02;;;16.63;;
35330;SDS011;21441;52.190;20.910;2024-02-14T04:11:46;30.27;;;17.17;;
35330;SDS011;21441;52.190;20.910;2024-02-14T04:14:14;29.38;;;17.98;;
35330;SDS011;21441;52.190;20.910;2024-02-14T04:16:41;28.98;;;17.63;;
35330;SDS011;21441;52.190;20.910;2024-02-14T04:19:08;32.95;;;18.17;;
35330;SDS011;21441;52.190;20.910;2024-02-14T04:21:37;31.38;;;16.73;;
35330;SDS011;21441;52.190;20.910;2024-02-14T04:24:05;28.40;;;16.35;;
35330;SDS011;21441;52.190;20.910;2024-02-14T04:26:33;31.65;;;18.63;;
35330;SDS011;21441;52.190;20.910;2024-02-14T04:29:00;30.73;;;17.13;;
35330;SDS011;21441;52.190;20.910;2024-02-14T04:31:27;29.00;;;17.15;;
35330;SDS011;21441;52.190;20.910;2024-02-14T04:33:55;32.88;;;16.27;;
35330;SDS011;21441;52.190;20.910;2024-02-14T04:36:22;32.25;;;17.20;;
35330;SDS011;21441;52.190;20.910;2024-02-14T04:38:49;31.85;;;16.42;;
35330;SDS011;21441;52.190;20.910;2024-02-14T04:41:18;29.65;;;17.38;;
35330;SDS011;21441;52.190;20.910;2024-02-14T04:43:45;30.70;;;17.58;;
35330;SDS011;21441;52.190;20.910;2024-02-14T04:46:12;32.35;;;17.77;;
35330;SDS011;21441;52.190;20.910;2024-02-14T04:48:39;32.92;;;18.63;;
35330;SDS011;21441;52.190;20.910;2024-02-14T04:51:06;41.10;;;21.40;;
35330;SDS011;21441;52.190;20.910;2024-02-14T04:53:33;32.33;;;18.20;;
35330;SDS011;21441;52.190;20.910;2024-02-14T04:56:01;28.55;;;16.27;;
35330;SDS011;21441;52.190;20.910;2024-02-14T04:58:29;33.63;;;18.25;;
35330;SDS011;21441;52.190;20.910;2024-02-14T05:00:56;29.63;;;16.77;;
35330;SDS011;21441;52.190;20.910;2024-02-14T05:03:22;32.10;;;16.92;;
35330;SDS011;21441;52.190;20.910;2024-02-14T05:05:50;25.67;;;17.92;;
35330;SDS011;21441;52.190;20.910;2024-02-14T05:08:18;28.08;;;15.90;;
35330;SDS011;21441;52.190;20.910;2024-02-14T05:11:01;32.28;;;16.77;;
35330;SDS011;21441;52.190;20.910;2024-02-14T05:13:31;30.88;;;16.50;;
35330;SDS011;21441;52.190;20.910;2024-02-14T05:15:58;28.50;;;15.48;;
35330;SDS011;21441;52.190;20.910;2024-02-14T05:18:25;31.65;;;17.20;;
35330;SDS011;21441;52.190;20.910;2024-02-14T05:20:52;29.38;;;16.33;;
35330;SDS011;21441;52.190;20.910;2024-02-14T05:23:19;32.83;;;18.40;;
35330;SDS011;21441;52.190;20.910;2024-02-14T05:25:46;35.40;;;21.00;;
35330;SDS011;21441;52.190;20.910;2024-02-14T05:28:13;35.13;;;19.48;;
35330;SDS011;21441;52.190;20.910;2024-02-14T05:30:42;34.28;;;18.10;;
35330;SDS011;21441;52.190;20.910;2024-02-14T05:33:08;27.55;;;17.02;;
35330;SDS011;21441;52.190;20.910;2024-02-14T05:35:36;29.02;;;17.02;;
35330;SDS011;21441;52.190;20.910;2024-02-14T05:38:03;28.50;;;16.08;;
35330;SDS011;21441;52.190;20.910;2024-02-14T05:40:35;28.20;;;15.13;;
35330;SDS011;21441;52.190;20.910;2024-02-14T05:43:07;27.40;;;16.70;;
35330;SDS011;21441;52.190;20.910;2024-02-14T05:45:34;30.42;;;16.95;;
35330;SDS011;21441;52.190;20.910;2024-02-14T05:48:02;29.98;;;17.13;;
35330;SDS011;21441;52.190;20.910;2024-02-14T05:50:29;27.02;;;16.33;;
35330;SDS011;21441;52.190;20.910;2024-02-14T05:52:56;27.88;;;16.60;;
35330;SDS011;21441;52.190;20.910;2024-02-14T05:55:23;28.15;;;17.08;;
35330;SDS011;21441;52.190;20.910;2024-02-14T05:57:51;29.60;;;16.52;;
35330;SDS011;21441;52.190;20.910;2024-02-14T06:00:18;26.02;;;16.40;;
35330;SDS011;21441;52.190;20.910;2024-02-14T06:02:48;27.33;;;16.52;;
35330;SDS011;21441;52.190;20.910;2024-02-14T06:05:21;30.58;;;16.25;;
35330;SDS011;21441;52.190;20.910;2024-02-14T06:07:48;31.02;;;16.02;;
35330;SDS011;21441;52.190;20.910;2024-02-14T06:10:16;31.67;;;17.23;;
35330;SDS011;21441;52.190;20.910;2024-02-14T06:12:43;29.80;;;16.58;;
35330;SDS011;21441;52.190;20.910;2024-02-14T06:15:14;23.42;;;15.48;;
35330;SDS011;21441;52.190;20.910;2024-02-14T06:17:41;31.40;;;17.08;;
35330;SDS011;21441;52.190;20.910;2024-02-14T06:20:09;26.80;;;15.90;;
35330;SDS011;21441;52.190;20.910;2024-02-14T06:22:38;27.52;;;15.63;;
35330;SDS011;21441;52.190;20.910;2024-02-14T06:25:08;25.48;;;14.75;;
35330;SDS011;21441;52.190;20.910;2024-02-14T06:27:37;25.70;;;15.85;;
35330;SDS011;21441;52.190;20.910;2024-02-14T06:30:05;27.08;;;15.40;;
35330;SDS011;21441;52.190;20.910;2024-02-14T06:32:32;27.40;;;15.23;;
35330;SDS011;21441;52.190;20.910;2024-02-14T06:34:59;29.63;;;16.38;;
35330;SDS011;21441;52.190;20.910;2024-02-14T06:37:26;23.90;;;13.45;;
35330;SDS011;21441;52.190;20.910;2024-02-14T06:39:54;24.23;;;15.52;;
35330;SDS011;21441;52.190;20.910;2024-02-14T06:42:23;26.00;;;14.07;;
35330;SDS011;21441;52.190;20.910;2024-02-14T06:44:50;23.50;;;13.65;;
35330;SDS011;21441;52.190;20.910;2024-02-14T06:47:17;27.55;;;14.30;;
35330;SDS011;21441;52.190;20.910;2024-02-14T06:49:44;27.55;;;14.95;;
35330;SDS011;21441;52.190;20.910;2024-02-14T06:52:11;25.08;;;14.25;;
35330;SDS011;21441;52.190;20.910;2024-02-14T06:54:38;24.08;;;13.82;;
35330;SDS011;21441;52.190;20.910;2024-02-14T06:57:06;19.67;;;13.20;;
35330;SDS011;21441;52.190;20.910;2024-02-14T06:59:33;25.02;;;13.77;;
35330;SDS011;21441;52.190;20.910;2024-02-14T07:02:02;25.00;;;13.75;;
35330;SDS011;21441;52.190;20.910;2024-02-14T07:04:29;22.48;;;14.73;;
35330;SDS011;21441;52.190;20.910;2024-02-14T07:06:56;18.58;;;11.68;;
35330;SDS011;21441;52.190;20.910;2024-02-14T07:09:24;20.55;;;11.85;;
35330;SDS011;21441;52.190;20.910;2024-02-14T07:11:51;19.65;;;12.10;;
35330;SDS011;21441;52.190;20.910;2024-02-14T07:14:22;16.77;;;10.05;;
35330;SDS011;21441;52.190;20.910;2024-02-14T07:16:49;20.35;;;10.70;;
35330;SDS011;21441;52.190;20.910;2024-02-14T07:19:22;18.58;;;10.93;;
35330;SDS011;21441;52.190;20.910;2024-02-14T07:21:48;16.65;;;10.25;;
35330;SDS011;21441;52.190;20.910;2024-02-14T07:24:15;16.17;;;10.13;;
35330;SDS011;21441;52.190;20.910;2024-02-14T07:26:45;16.73;;;10.80;;
35330;SDS011;21441;52.190;20.910;2024-02-14T07:29:12;15.32;;;9.35;;
35330;SDS011;21441;52.190;20.910;2024-02-14T07:31:40;14.32;;;10.45;;
35330;SDS011;21441;52.190;20.910;2024-02-14T07:34:07;17.58;;;10.38;;
35330;SDS011;21441;52.190;20.910;2024-02-14T07:36:37;20.27;;;10.85;;
35330;SDS011;21441;52.190;20.910;2024-02-14T07:39:07;18.30;;;10.52;;
35330;SDS011;21441;52.190;20.910;2024-02-14T07:41:34;13.65;;;9.95;;
35330;SDS011;21441;52.190;20.910;2024-02-14T07:44:01;16.85;;;11.05;;
35330;SDS011;21441;52.190;20.910;2024-02-14T07:46:28;17.02;;;11.85;;
35330;SDS011;21441;52.190;20.910;2024-02-14T07:48:58;21.83;;;11.27;;
35330;SDS011;21441;52.190;20.910;2024-02-14T07:51:25;18.55;;;11.25;;
35330;SDS011;21441;52.190;20.910;2024-02-14T07:53:54;18.38;;;11.55;;
35330;SDS011;21441;52.190;20.910;2024-02-14T07:56:21;22.35;;;13.27;;
35330;SDS011;21441;52.190;20.910;2024-02-14T07:58:48;19.88;;;11.52;;
35330;SDS011;21441;52.190;20.910;2024-02-14T08:01:20;19.17;;;10.70;;
35330;SDS011;21441;52.190;20.910;2024-02-14T08:03:50;17.38;;;10.60;;
35330;SDS011;21441;52.190;20.910;2024-02-14T08:06:18;17.58;;;11.77;;
35330;SDS011;21441;52.190;20.910;2024-02-14T08:08:45;15.38;;;10.60;;
35330;SDS011;21441;52.190;20.910;2024-02-14T08:11:11;17.48;;;10.05;;
35330;SDS011;21441;52.190;20.910;2024-02-14T08:13:38;17.52;;;10.95;;
35330;SDS011;21441;52.190;20.910;2024-02-14T08:16:06;17.33;;;10.23;;
35330;SDS011;21441;52.190;20.910;2024-02-14T08:18:33;17.10;;;11.05;;
35330;SDS011;21441;52.190;20.910;2024-02-14T08:21:00;20.52;;;11.18;;
35330;SDS011;21441;52.190;20.910;2024-02-14T08:23:29;17.30;;;10.35;;
35330;SDS011;21441;52.190;20.910;2024-02-14T08:25:55;12.93;;;9.70;;
35330;SDS011;21441;52.190;20.910;2024-02-14T08:28:22;15.40;;;9.52;;
35330;SDS011;21441;52.190;20.910;2024-02-14T08:30:49;17.83;;;9.55;;
35330;SDS011;21441;52.190;20.910;2024-02-14T08:33:17;15.52;;;9.60;;
35330;SDS011;21441;52.190;20.910;2024-02-14T08:35:44;17.65;;;9.85;;
35330;SDS011;21441;52.190;20.910;2024-02-14T08:38:13;15.48;;;9.15;;
35330;SDS011;21441;52.190;20.910;2024-02-14T08:40:41;17.30;;;11.00;;
35330;SDS011;21441;52.190;20.910;2024-02-14T08:43:08;13.82;;;8.52;;
35330;SDS011;21441;52.190;20.910;2024-02-14T08:45:34;15.48;;;8.93;;
35330;SDS011;21441;52.190;20.910;2024-02-14T08:48:03;15.68;;;8.90;;
35330;SDS011;21441;52.190;20.910;2024-02-14T08:50:30;15.95;;;8.95;;
35330;SDS011;21441;52.190;20.910;2024-02-14T08:52:59;14.48;;;8.68;;
35330;SDS011;21441;52.190;20.910;2024-02-14T08:55:26;14.98;;;8.13;;
35330;SDS011;21441;52.190;20.910;2024-02-14T08:57:54;12.10;;;7.38;;
35330;SDS011;21441;52.190;20.910;2024-02-14T09:00:22;15.75;;;8.38;;
35330;SDS011;21441;52.190;20.910;2024-02-14T09:02:49;12.48;;;7.78;;
35330;SDS011;21441;52.190;20.910;2024-02-14T09:05:16;10.73;;;6.97;;
35330;SDS011;21441;52.190;20.910;2024-02-14T09:07:44;13.13;;;7.25;;
35330;SDS011;21441;52.190;20.910;2024-02-14T09:10:11;14.40;;;7.68;;
35330;SDS011;21441;52.190;20.910;2024-02-14T09:12:38;14.55;;;7.38;;
35330;SDS011;21441;52.190;20.910;2024-02-14T09:15:09;15.55;;;7.85;;
35330;SDS011;21441;52.190;20.910;2024-02-14T09:17:37;13.90;;;6.85;;
35330;SDS011;21441;52.190;20.910;2024-02-14T09:20:05;10.55;;;6.38;;
35330;SDS011;21441;52.190;20.910;2024-02-14T09:22:35;11.40;;;7.53;;
35330;SDS011;21441;52.190;20.910;2024-02-14T09:25:01;12.23;;;7.78;;
35330;SDS011;21441;52.190;20.910;2024-02-14T09:27:29;11.57;;;6.85;;
35330;SDS011;21441;52.190;20.910;2024-02-14T09:29:56;10.30;;;6.18;;
35330;SDS011;21441;52.190;20.910;2024-02-14T09:32:25;10.57;;;5.60;;
35330;SDS011;21441;52.190;20.910;2024-02-14T09:34:51;8.68;;;5.05;;
35330;SDS011;21441;52.190;20.910;2024-02-14T09:37:18;9.07;;;4.43;;
35330;SDS011;21441;52.190;20.910;2024-02-14T09:39:45;9.02;;;4.47;;
35330;SDS011;21441;52.190;20.910;2024-02-14T09:42:13;8.38;;;4.05;;
35330;SDS011;21441;52.190;20.910;2024-02-14T09:44:40;7.32;;;4.32;;
35330;SDS011;21441;52.190;20.910;2024-02-14T09:47:07;7.50;;;4.20;;
35330;SDS011;21441;52.190;20.910;2024-02-14T09:49:37;6.85;;;4.55;;
35330;SDS011;21441;52.190;20.910;2024-02-14T09:52:04;6.78;;;3.60;;
35330;SDS011;21441;52.190;20.910;2024-02-14T09:54:31;5.80;;;3.55;;
35330;SDS011;21441;52.190;20.910;2024-02-14T09:57:00;6.07;;;3.50;;
35330;SDS011;21441;52.190;20.910;2024-02-14T09:59:28;7.30;;;3.22;;
35330;SDS011;21441;52.190;20.910;2024-02-14T10:01:56;4.60;;;2.95;;
35330;SDS011;21441;52.190;20.910;2024-02-14T10:04:23;6.68;;;3.28;;
35330;SDS011;21441;52.190;20.910;2024-02-14T10:06:51;5.22;;;3.20;;
35330;SDS011;21441;52.190;20.910;2024-02-14T10:09:19;6.43;;;3.15;;
35330;SDS011;21441;52.190;20.910;2024-02-14T10:11:46;6.22;;;3.33;;
35330;SDS011;21441;52.190;20.910;2024-02-14T10:14:13;7.07;;;3.28;;
35330;SDS011;21441;52.190;20.910;2024-02-14T10:16:40;6.95;;;3.03;;
35330;SDS011;21441;52.190;20.910;2024-02-14T10:19:13;7.88;;;3.20;;
35330;SDS011;21441;52.190;20.910;2024-02-14T10:21:40;4.13;;;2.35;;
35330;SDS011;21441;52.190;20.910;2024-02-14T10:24:09;6.18;;;2.63;;
35330;SDS011;21441;52.190;20.910;2024-02-14T10:26:36;5.47;;;2.50;;
35330;SDS011;21441;52.190;20.910;2024-02-14T10:29:02;4.45;;;2.80;;
35330;SDS011;21441;52.190;20.910;2024-02-14T10:31:29;4.90;;;2.78;;
35330;SDS011;21441;52.190;20.910;2024-02-14T10:33:56;7.80;;;2.53;;
35330;SDS011;21441;52.190;20.910;2024-02-14T10:36:23;7.43;;;2.35;;
35330;SDS011;21441;52.190;20.910;2024-02-14T10:38:52;4.68;;;2.22;;
35330;SDS011;21441;52.190;20.910;2024-02-14T10:41:21;4.40;;;2.13;;
35330;SDS011;21441;52.190;20.910;2024-02-14T10:43:48;5.88;;;2.70;;
35330;SDS011;21441;52.190;20.910;2024-02-14T10:46:18;4.20;;;2.72;;
35330;SDS011;21441;52.190;20.910;2024-02-14T10:48:46;4.70;;;2.95;;
35330;SDS011;21441;52.190;20.910;2024-02-14T10:51:15;4.72;;;2.38;;
35330;SDS011;21441;52.190;20.910;2024-02-14T10:53:43;4.93;;;2.03;;
35330;SDS011;21441;52.190;20.910;2024-02-14T10:56:12;4.18;;;2.25;;
35330;SDS011;21441;52.190;20.910;2024-02-14T11:01:10;5.90;;;2.30;;
35330;SDS011;21441;52.190;20.910;2024-02-14T11:03:36;4.72;;;2.28;;
35330;SDS011;21441;52.190;20.910;2024-02-14T11:06:04;14.25;;;3.03;;
35330;SDS011;21441;52.190;20.910;2024-02-14T11:08:31;2.80;;;1.83;;
35330;SDS011;21441;52.190;20.910;2024-02-14T11:10:59;5.15;;;2.00;;
35330;SDS011;21441;52.190;20.910;2024-02-14T11:13:27;5.07;;;1.80;;
35330;SDS011;21441;52.190;20.910;2024-02-14T11:15:55;4.90;;;2.00;;
35330;SDS011;21441;52.190;20.910;2024-02-14T11:18:26;5.55;;;2.10;;
35330;SDS011;21441;52.190;20.910;2024-02-14T11:20:55;4.10;;;2.15;;
35330;SDS011;21441;52.190;20.910;2024-02-14T11:23:23;3.03;;;2.33;;
35330;SDS011;21441;52.190;20.910;2024-02-14T11:25:50;3.20;;;1.77;;
35330;SDS011;21441;52.190;20.910;2024-02-14T11:28:18;3.75;;;2.00;;
35330;SDS011;21441;52.190;20.910;2024-02-14T11:30:46;4.60;;;1.90;;
35330;SDS011;21441;52.190;20.910;2024-02-14T11:33:16;4.13;;;2.00;;
35330;SDS011;21441;52.190;20.910;2024-02-14T11:35:46;5.13;;;2.30;;
35330;SDS011;21441;52.190;20.910;2024-02-14T11:40:41;4.65;;;2.13;;
35330;SDS011;21441;52.190;20.910;2024-02-14T11:43:11;3.97;;;1.77;;
35330;SDS011;21441;52.190;20.910;2024-02-14T11:45:39;3.63;;;1.83;;
35330;SDS011;21441;52.190;20.910;2024-02-14T11:48:07;4.28;;;2.40;;
35330;SDS011;21441;52.190;20.910;2024-02-14T11:50:34;2.95;;;2.00;;
35330;SDS011;21441;52.190;20.910;2024-02-14T11:53:03;5.03;;;2.35;;
35330;SDS011;21441;52.190;20.910;2024-02-14T11:55:31;3.45;;;1.90;;
35330;SDS011;21441;52.190;20.910;2024-02-14T11:58:02;5.40;;;2.53;;
35330;SDS011;21441;52.190;20.910;2024-02-14T12:00:29;2.28;;;1.80;;
35330;SDS011;21441;52.190;20.910;2024-02-14T12:02:55;4.20;;;2.03;;
35330;SDS011;21441;52.190;20.910;2024-02-14T12:05:23;3.83;;;2.03;;
35330;SDS011;21441;52.190;20.910;2024-02-14T12:07:49;3.58;;;1.63;;
35330;SDS011;21441;52.190;20.910;2024-02-14T12:10:18;3.95;;;2.13;;
35330;SDS011;21441;52.190;20.910;2024-02-14T12:12:47;4.40;;;2.50;;
35330;SDS011;21441;52.190;20.910;2024-02-14T12:15:14;4.03;;;2.33;;
35330;SDS011;21441;52.190;20.910;2024-02-14T12:17:41;3.25;;;2.00;;
35330;SDS011;21441;52.190;20.910;2024-02-14T12:20:09;2.70;;;2.05;;
35330;SDS011;21441;52.190;20.910;2024-02-14T12:22:36;3.75;;;2.10;;
35330;SDS011;21441;52.190;20.910;2024-02-14T12:25:05;5.97;;;2.20;;
35330;SDS011;21441;52.190;20.910;2024-02-14T12:27:33;3.67;;;2.28;;
35330;SDS011;21441;52.190;20.910;2024-02-14T12:30:03;3.75;;;2.08;;
35330;SDS011;21441;52.190;20.910;2024-02-14T12:32:30;3.80;;;2.15;;
35330;SDS011;21441;52.190;20.910;2024-02-14T12:34:57;6.35;;;2.55;;
35330;SDS011;21441;52.190;20.910;2024-02-14T12:37:24;5.47;;;2.88;;
35330;SDS011;21441;52.190;20.910;2024-02-14T12:39:51;4.72;;;2.45;;
35330;SDS011;21441;52.190;20.910;2024-02-14T12:42:18;5.35;;;2.65;;
35330;SDS011;21441;52.190;20.910;2024-02-14T12:44:51;5.75;;;3.08;;
35330;SDS011;21441;52.190;20.910;2024-02-14T12:47:19;4.60;;;2.40;;
35330;SDS011;21441;52.190;20.910;2024-02-14T12:49:47;4.57;;;2.60;;
35330;SDS011;21441;52.190;20.910;2024-02-14T12:52:15;5.07;;;2.45;;
35330;SDS011;21441;52.190;20.910;2024-02-14T12:54:41;3.75;;;2.33;;
35330;SDS011;21441;52.190;20.910;2024-02-14T12:57:08;4.95;;;2.72;;
35330;SDS011;21441;52.190;20.910;2024-02-14T12:59:35;3.97;;;2.40;;
35330;SDS011;21441;52.190;20.910;2024-02-14T13:02:04;5.47;;;3.20;;
35330;SDS011;21441;52.190;20.910;2024-02-14T13:04:32;8.73;;;2.60;;
35330;SDS011;21441;52.190;20.910;2024-02-14T13:06:59;8.30;;;3.35;;
35330;SDS011;21441;52.190;20.910;2024-02-14T13:09:26;7.18;;;2.83;;
35330;SDS011;21441;52.190;20.910;2024-02-14T13:11:53;4.50;;;2.83;;
35330;SDS011;21441;52.190;20.910;2024-02-14T13:14:20;3.80;;;2.22;;
35330;SDS011;21441;52.190;20.910;2024-02-14T13:16:47;4.10;;;2.28;;
35330;SDS011;21441;52.190;20.910;2024-02-14T13:19:15;3.92;;;2.10;;
35330;SDS011;21441;52.190;20.910;2024-02-14T13:21:42;3.22;;;2.22;;
35330;SDS011;21441;52.190;20.910;2024-02-14T13:24:11;4.10;;;2.20;;
35330;SDS011;21441;52.190;20.910;2024-02-14T13:26:38;4.32;;;2.50;;
35330;SDS011;21441;52.190;20.910;2024-02-14T13:29:05;3.55;;;2.50;;
35330;SDS011;21441;52.190;20.910;2024-02-14T13:31:32;2.97;;;2.33;;
35330;SDS011;21441;52.190;20.910;2024-02-14T13:33:59;7.47;;;2.63;;
35330;SDS011;21441;52.190;20.910;2024-02-14T13:36:28;2.78;;;2.10;;
35330;SDS011;21441;52.190;20.910;2024-02-14T13:38:55;4.95;;;2.72;;
35330;SDS011;21441;52.190;20.910;2024-02-14T13:41:22;3.08;;;2.30;;
35330;SDS011;21441;52.190;20.910;2024-02-14T13:43:48;8.80;;;3.08;;
35330;SDS011;21441;52.190;20.910;2024-02-14T13:46:15;4.70;;;2.47;;
35330;SDS011;21441;52.190;20.910;2024-02-14T13:48:43;5.43;;;2.75;;
35330;SDS011;21441;52.190;20.910;2024-02-14T13:51:10;5.47;;;2.83;;
35330;SDS011;21441;52.190;20.910;2024-02-14T13:53:38;5.40;;;2.55;;
35330;SDS011;21441;52.190;20.910;2024-02-14T13:56:05;3.97;;;2.33;;
35330;SDS011;21441;52.190;20.910;2024-02-14T13:58:32;6.35;;;2.40;;
35330;SDS011;21441;52.190;20.910;2024-02-14T14:00:59;2.78;;;2.08;;
35330;SDS011;21441;52.190;20.910;2024-02-14T14:03:25;4.97;;;2.22;;
35330;SDS011;21441;52.190;20.910;2024-02-14T14:05:53;3.78;;;2.00;;
35330;SDS011;21441;52.190;20.910;2024-02-14T14:08:19;5.07;;;2.50;;
35330;SDS011;21441;52.190;20.910;2024-02-14T14:10:47;5.82;;;2.60;;
35330;SDS011;21441;52.190;20.910;2024-02-14T14:13:14;3.10;;;2.10;;
35330;SDS011;21441;52.190;20.910;2024-02-14T14:15:41;6.70;;;3.05;;
35330;SDS011;21441;52.190;20.910;2024-02-14T14:18:08;3.80;;;2.53;;
35330;SDS011;21441;52.190;20.910;2024-02-14T14:20:36;8.20;;;2.67;;
35330;SDS011;21441;52.190;20.910;2024-02-14T14:23:03;5.60;;;2.47;;
35330;SDS011;21441;52.190;20.910;2024-02-14T14:25:30;5.30;;;2.83;;
35330;SDS011;21441;52.190;20.910;2024-02-14T14:27:58;8.20;;;2.20;;